Archival Weather

Fukuoka

Fukuoka, Japan (RJFF)

Report from: Tuesday, August 16, 2022 2:05 PM JST
Current time: Sunday, November 27, 2022 5:41 PM JST

Current weather
Weather history
Weather forecast

Present weatherThunderstorm with rain
Temperature27.0°C (80.6°F)
Heat index30.6°C (87.0°F)
Dew point25.0°C (77.0°F)
Winds 10 kts (5.1 m/s, 11.5 mph) Vrb
Winds variableWinds variable from South-Southwest (210°) to West (280°)
Visibility5 mi. (8 km)
Clouds Few clouds 800 ft. (244 m)
Few clouds with cumulonimbus 2,000 ft. (610 m)
Scattered clouds 3,000 ft. (914 m)
Ceiling: Broken clouds 4,000 ft. (1,219 m)
Altimeter29.74 in.Hg (1007 mB)
Precip. events C 2:02 PM
Relative humidity89 %
Density altitude2,017 ft. (615 m)
Remarks Special weather observation
Thunderstorm east moving northeast
Flight conditions Marginal Visual Meteorological Conditions
Raw dataSPJP31 KWBC 160515 SPECI RJFF 160505Z 24010KT 210V280 8000 R16/1200VP2000U TSRA FEW008 FEW020CB SCT030 BKN040 27/25 Q1007 RMK 1ST008 2CB020 4CU030 5CU040 A2975 FBL TS 5KM E MOV NE
An error has occurred. This application may no longer respond until reloaded. Reload 🗙